Time;durP1;ratioP1;P1;durP2;ratioP2;P2;SDS_P1;SDS_P2;PMS_P1;PMS_P2;Temp;Humidity;BMP_temperature;BMP_pressure;BME280_temperature;BME280_humidity;BME280_pressure;Samples;Min_cycle;Max_cycle;Signal;HPM_P1;HPM_P2
2022/01/04 00:01:29;;;;;;;15.43;4.82;;;8.20;99.90;;;;;;5074835;28;20039;-79
2022/01/04 00:04:13;;;;;;;25.08;5.53;;;8.20;99.90;;;;;;5074743;28;20523;-79
2022/01/04 00:06:58;;;;;;;22.58;6.03;;;8.20;99.90;;;;;;5074182;28;20048;-79
2022/01/04 00:09:43;;;;;;;17.98;5.22;;;8.20;99.90;;;;;;5074173;28;20044;-79
2022/01/04 00:15:31;;;;;;;24.08;6.78;;;8.20;99.90;;;;;;5062134;28;20059;-79
2022/01/04 00:18:16;;;;;;;24.25;6.15;;;8.30;99.90;;;;;;5059072;28;20052;-79
2022/01/04 00:21:00;;;;;;;22.98;6.13;;;8.30;99.90;;;;;;5073924;28;20051;-79
2022/01/04 00:23:45;;;;;;;25.42;6.70;;;8.70;99.90;;;;;;5057020;28;20631;-79
2022/01/04 00:26:30;;;;;;;18.10;5.80;;;8.30;99.90;;;;;;5045120;28;20447;-79
2022/01/04 00:29:14;;;;;;;20.23;6.88;;;8.30;99.90;;;;;;5074227;28;20090;-79
2022/01/04 00:31:58;;;;;;;24.15;7.18;;;8.30;99.90;;;;;;5073662;28;20047;-79
2022/01/04 00:34:43;;;;;;;25.67;6.90;;;8.30;99.90;;;;;;5073672;28;20051;-79
2022/01/04 00:37:27;;;;;;;23.42;6.97;;;8.30;99.90;;;;;;5074210;28;20105;-79
2022/01/04 00:40:11;;;;;;;;;;;8.30;99.90;;;;;;5074652;28;20103;-79
2022/01/04 00:42:55;;;;;;;21.58;5.90;;;8.30;99.90;;;;;;5073589;28;20311;-79
2022/01/04 00:45:39;;;;;;;19.33;6.60;;;8.30;99.90;;;;;;5073876;28;20048;-79
2022/01/04 00:51:09;;;;;;;24.02;7.07;;;8.40;99.90;;;;;;5058244;28;20097;-79
2022/01/04 00:53:53;;;;;;;26.13;7.70;;;8.20;99.90;;;;;;5073015;28;20123;-79
2022/01/04 00:56:37;;;;;;;31.77;7.00;;;8.30;99.90;;;;;;5073669;28;20044;-79
2022/01/04 00:59:22;;;;;;;20.00;5.93;;;8.30;99.90;;;;;;5058708;28;20400;-79
2022/01/04 01:02:26;;;;;;;23.88;6.80;;;8.20;99.90;;;;;;5044089;28;20101;-79
2022/01/04 01:05:12;;;;;;;34.60;7.47;;;8.20;99.90;;;;;;5073103;28;20039;-79
2022/01/04 01:07:56;;;;;;;27.10;6.55;;;8.20;99.90;;;;;;5073103;28;20392;-79
2022/01/04 01:13:24;;;;;;;28.60;6.30;;;8.20;99.90;;;;;;5073268;28;19935;-79
2022/01/04 01:16:09;;;;;;;30.30;5.97;;;8.30;99.90;;;;;;5057920;28;20051;-79
2022/01/04 01:18:53;;;;;;;23.40;6.97;;;8.20;99.90;;;;;;5072849;28;20043;-79
2022/01/04 01:21:38;;;;;;;22.10;6.53;;;8.30;99.90;;;;;;5058154;28;20039;-79
2022/01/04 01:24:22;;;;;;;30.15;7.53;;;8.30;99.90;;;;;;5057442;28;20444;-79
2022/01/04 01:27:06;;;;;;;;;;;8.30;99.90;;;;;;5073078;28;20059;-79
2022/01/04 01:29:50;;;;;;;21.63;6.57;;;8.30;99.90;;;;;;5072943;28;19915;-79
2022/01/04 01:32:34;;;;;;;31.25;7.60;;;8.30;99.90;;;;;;5054655;28;20044;-79
2022/01/04 01:35:19;;;;;;;29.42;7.20;;;8.30;99.90;;;;;;5053197;28;20044;-79
2022/01/04 01:38:04;;;;;;;20.83;6.00;;;8.30;99.90;;;;;;5052526;28;20501;-79
2022/01/04 01:40:49;;;;;;;19.52;6.10;;;8.20;99.90;;;;;;5038124;28;20136;-79
2022/01/04 01:43:34;;;;;;;19.58;6.60;;;8.30;99.90;;;;;;5052892;28;20094;-79
2022/01/04 01:46:18;;;;;;;24.60;7.05;;;8.30;99.90;;;;;;5052847;28;20048;-79
2022/01/04 01:49:03;;;;;;;32.38;7.18;;;8.40;99.90;;;;;;5052408;28;20413;-79
2022/01/04 01:51:48;;;;;;;22.25;7.18;;;8.30;99.90;;;;;;5052799;28;20046;-79
2022/01/04 01:54:32;;;;;;;19.70;4.97;;;8.40;99.90;;;;;;5037665;28;20040;-79
2022/01/04 01:57:16;;;;;;;;;;;8.40;99.90;;;;;;5037571;28;20104;-79
2022/01/04 02:00:00;;;;;;;22.13;5.50;;;8.20;99.90;;;;;;5052325;28;20012;-79
2022/01/04 02:02:45;;;;;;;24.38;7.65;;;8.30;99.90;;;;;;5053745;28;20087;-79
2022/01/04 02:05:29;;;;;;;25.73;6.32;;;8.20;99.90;;;;;;5037552;28;20082;-79
2022/01/04 02:08:15;;;;;;;;;;;8.20;99.90;;;;;;5052525;28;20048;-79
2022/01/04 02:10:59;;;;;;;25.63;7.88;;;8.40;99.90;;;;;;5052120;28;19915;-79
2022/01/04 02:13:43;;;;;;;20.50;7.15;;;8.30;99.90;;;;;;5037467;28;20044;-79
2022/01/04 02:16:28;;;;;;;;;;;8.20;99.90;;;;;;5052854;28;20463;-79
2022/01/04 02:19:13;;;;;;;28.17;7.18;;;8.20;99.90;;;;;;5053094;28;19963;-79
2022/01/04 02:21:57;;;;;;;23.48;7.38;;;8.20;99.90;;;;;;5037363;28;20102;-79
2022/01/04 02:24:41;;;;;;;35.60;8.60;;;8.20;99.90;;;;;;5052177;28;20464;-79
2022/01/04 02:27:27;;;;;;;28.90;7.82;;;8.30;99.90;;;;;;5049005;28;20044;-79
2022/01/04 02:30:17;;;;;;;27.52;8.20;;;8.20;99.90;;;;;;5072002;28;20086;-79
2022/01/04 02:33:01;;;;;;;28.65;7.53;;;8.20;99.90;;;;;;5071752;28;20086;-80
2022/01/04 02:35:46;;;;;;;21.77;7.55;;;8.20;99.90;;;;;;5051581;28;20043;-79
2022/01/04 02:38:30;;;;;;;28.70;9.65;;;8.20;99.90;;;;;;5052197;28;20040;-79
2022/01/04 02:41:14;;;;;;;25.33;8.65;;;8.40;99.90;;;;;;5051736;28;20082;-79
2022/01/04 02:43:58;;;;;;;28.35;8.32;;;8.30;99.90;;;;;;5056104;28;20087;-79
2022/01/04 02:46:43;;;;;;;26.92;9.27;;;8.20;99.90;;;;;;5056174;28;20044;-79
2022/01/04 02:49:27;;;;;;;33.50;9.02;;;8.20;99.90;;;;;;5041142;28;20091;-79
2022/01/04 02:52:11;;;;;;;;;;;8.20;99.90;;;;;;5056056;28;20056;-79
2022/01/04 02:54:55;;;;;;;24.15;7.45;;;8.10;99.90;;;;;;5041055;28;19970;-79
2022/01/04 02:57:40;;;;;;;32.08;8.63;;;8.10;99.90;;;;;;5057037;28;20158;-79
2022/01/04 03:00:25;;;;;;;25.63;8.73;;;8.10;99.90;;;;;;5055489;28;20083;-79
2022/01/04 03:03:10;;;;;;;21.05;7.68;;;8.10;99.90;;;;;;5055429;28;20472;-79
2022/01/04 03:05:54;;;;;;;26.95;8.38;;;8.10;99.90;;;;;;5040659;28;20080;-79
2022/01/04 03:08:38;;;;;;;30.25;7.75;;;8.10;99.90;;;;;;5055973;28;20040;-79
2022/01/04 03:11:22;;;;;;;28.90;8.45;;;8.10;99.90;;;;;;5055313;28;20083;-79
2022/01/04 03:14:06;;;;;;;;;;;8.10;99.90;;;;;;5055654;28;20110;-79
2022/01/04 03:16:50;;;;;;;29.90;8.55;;;8.10;99.90;;;;;;5055601;28;20284;-79
2022/01/04 03:19:34;;;;;;;31.88;9.90;;;8.10;99.90;;;;;;5040472;28;20059;-79
2022/01/04 03:22:18;;;;;;;;;;;8.10;99.90;;;;;;5055467;28;20040;-79
2022/01/04 03:25:03;;;;;;;22.17;7.05;;;8.10;99.90;;;;;;5040298;28;19928;-79
2022/01/04 03:27:47;;;;;;;30.58;9.63;;;8.10;99.90;;;;;;5069727;28;20059;-79
2022/01/04 03:30:32;;;;;;;40.38;10.38;;;8.20;99.90;;;;;;5075747;28;20032;-79
2022/01/04 03:33:17;;;;;;;34.03;9.80;;;8.20;99.90;;;;;;5074820;28;20039;-79
2022/01/04 03:36:03;;;;;;;29.48;8.73;;;8.20;99.90;;;;;;5060236;28;20052;-79
2022/01/04 03:38:49;;;;;;;28.75;9.88;;;8.20;99.90;;;;;;5075216;28;20039;-79
2022/01/04 03:41:37;;;;;;;21.73;9.32;;;8.20;99.90;;;;;;5075008;28;20038;-79
2022/01/04 03:44:21;;;;;;;27.90;9.88;;;8.20;99.90;;;;;;5074657;28;20483;-79
2022/01/04 03:47:06;;;;;;;32.05;9.65;;;8.20;99.90;;;;;;5059978;28;20047;-79
2022/01/04 03:49:51;;;;;;;31.10;10.13;;;8.20;99.90;;;;;;5074941;28;20039;-79
2022/01/04 03:52:37;;;;;;;22.25;9.02;;;8.30;99.90;;;;;;5074950;28;20074;-79
2022/01/04 03:55:22;;;;;;;33.88;9.88;;;8.20;99.90;;;;;;5073602;28;20090;-79
2022/01/04 03:58:06;;;;;;;;;;;8.20;99.90;;;;;;5074664;28;20063;-79
2022/01/04 04:00:50;;;;;;;32.72;11.15;;;8.20;99.90;;;;;;5059636;28;19919;-79
2022/01/04 04:03:36;;;;;;;34.10;9.80;;;8.20;99.90;;;;;;5071833;28;20042;-79
2022/01/04 04:06:20;;;;;;;26.98;11.23;;;8.20;99.90;;;;;;5039134;28;20094;-79
2022/01/04 04:09:05;;;;;;;30.45;9.82;;;8.20;99.90;;;;;;5054770;28;20401;-79
2022/01/04 04:11:49;;;;;;;29.98;11.90;;;8.20;99.90;;;;;;5054447;28;20040;-79
2022/01/04 04:14:33;;;;;;;32.25;11.35;;;8.20;99.90;;;;;;5039148;28;20505;-79
2022/01/04 04:17:17;;;;;;;36.67;10.77;;;8.20;99.90;;;;;;5054021;28;20535;-79
2022/01/04 04:20:04;;;;;;;30.80;10.52;;;8.20;99.90;;;;;;5054547;28;20124;-79
2022/01/04 04:22:48;;;;;;;31.65;11.52;;;8.20;99.90;;;;;;5054113;28;20047;-79
2022/01/04 04:25:33;;;;;;;33.78;12.00;;;8.20;99.90;;;;;;5038845;28;20456;-79
2022/01/04 04:28:17;;;;;;;29.20;10.25;;;8.20;99.90;;;;;;5072096;28;20040;-79
2022/01/04 04:31:03;;;;;;;26.23;10.60;;;8.20;99.90;;;;;;5059175;28;20035;-79
2022/01/04 04:33:47;;;;;;;28.80;11.52;;;8.30;99.90;;;;;;5073811;28;20039;-79
2022/01/04 04:36:32;;;;;;;29.77;12.20;;;8.20;99.90;;;;;;5073663;28;20508;-79
2022/01/04 04:39:16;;;;;;;38.70;12.20;;;8.40;99.90;;;;;;5058512;28;20044;-79
2022/01/04 04:42:01;;;;;;;;;;;8.20;99.90;;;;;;5074583;28;20050;-79
2022/01/04 04:44:46;;;;;;;33.92;12.05;;;8.20;99.90;;;;;;5074022;28;19962;-79
2022/01/04 04:47:30;;;;;;;32.88;11.77;;;8.20;99.90;;;;;;5073517;28;20542;-79
2022/01/04 04:50:15;;;;;;;28.85;12.50;;;8.20;99.90;;;;;;5058764;28;20040;-79
2022/01/04 04:53:00;;;;;;;30.08;10.70;;;8.30;99.90;;;;;;5071987;28;20091;-79
2022/01/04 04:55:44;;;;;;;27.27;10.93;;;8.20;99.90;;;;;;5058601;28;20048;-79
2022/01/04 04:58:29;;;;;;;28.00;10.82;;;8.20;99.90;;;;;;5058209;28;20500;-79
2022/01/04 05:01:13;;;;;;;32.72;10.68;;;8.20;99.90;;;;;;5058519;28;20039;-79
2022/01/04 05:03:57;;;;;;;38.88;14.68;;;8.20;99.90;;;;;;5058480;28;20047;-79
2022/01/04 05:06:41;;;;;;;29.30;12.70;;;8.20;99.90;;;;;;5057652;28;20447;-79
2022/01/04 05:09:25;;;;;;;;;;;8.40;99.90;;;;;;5073517;28;20039;-79
2022/01/04 05:12:10;;;;;;;25.00;10.05;;;8.20;99.90;;;;;;5058209;28;19923;-79
2022/01/04 05:14:54;;;;;;;24.95;10.95;;;8.20;99.90;;;;;;5073362;28;20044;-79
2022/01/04 05:17:39;;;;;;;26.05;10.55;;;8.20;99.90;;;;;;5072792;28;20063;-79
2022/01/04 05:20:23;;;;;;;32.03;11.45;;;8.30;99.90;;;;;;5072892;28;20071;-79
2022/01/04 05:23:08;;;;;;;35.47;11.63;;;8.40;99.90;;;;;;5058041;28;20090;-79
2022/01/04 05:25:52;;;;;;;25.63;10.00;;;8.20;99.90;;;;;;5057982;28;20476;-79
2022/01/04 05:28:36;;;;;;;;;;;8.20;99.90;;;;;;5046922;28;20405;-79
2022/01/04 05:31:20;;;;;;;31.25;13.00;;;8.10;99.90;;;;;;5052354;28;19931;-79
2022/01/04 05:34:04;;;;;;;;;;;8.10;99.90;;;;;;5038253;28;20047;-79
2022/01/04 05:36:48;;;;;;;33.28;11.13;;;8.10;99.90;;;;;;5037670;28;19962;-79
2022/01/04 05:39:32;;;;;;;28.75;12.38;;;8.20;99.90;;;;;;5052223;28;20546;-79
2022/01/04 05:42:17;;;;;;;27.98;10.98;;;8.20;99.90;;;;;;5069201;28;20031;-79
2022/01/04 05:45:01;;;;;;;27.25;12.00;;;8.20;99.90;;;;;;5054470;28;20071;-79
2022/01/04 05:47:46;;;;;;;30.13;11.65;;;8.40;99.90;;;;;;5068956;28;20043;-79
2022/01/04 05:50:30;;;;;;;33.63;12.98;;;8.20;99.90;;;;;;5039203;28;20135;-79
2022/01/04 05:53:14;;;;;;;;;;;8.20;99.90;;;;;;5057262;28;20496;-79
2022/01/04 05:55:58;;;;;;;28.13;11.70;;;8.20;99.90;;;;;;5071938;28;19927;-79
2022/01/04 05:58:42;;;;;;;;;;;8.20;99.90;;;;;;5071796;28;20124;-79
2022/01/04 06:01:27;;;;;;;28.58;9.70;;;8.20;99.90;;;;;;5071858;28;19935;-79
2022/01/04 06:04:11;;;;;;;26.20;11.68;;;8.20;99.90;;;;;;5071816;28;20035;-79
2022/01/04 06:06:56;;;;;;;31.25;12.13;;;8.10;99.90;;;;;;5071841;28;20048;-79
2022/01/04 06:09:46;;;;;;;34.75;11.90;;;8.20;99.90;;;;;;5056025;28;20125;-79
2022/01/04 06:15:15;;;;;;;26.20;11.75;;;8.20;99.90;;;;;;5071980;28;20044;-79
2022/01/04 06:17:59;;;;;;;30.92;12.65;;;8.10;99.90;;;;;;5071192;28;20043;-79
2022/01/04 06:20:44;;;;;;;25.38;11.60;;;8.20;99.90;;;;;;5055250;28;20086;-79
2022/01/04 06:23:28;;;;;;;35.42;11.32;;;8.20;99.90;;;;;;5071500;28;20527;-79
2022/01/04 06:26:13;;;;;;;26.65;13.25;;;8.20;99.90;;;;;;5054117;28;20047;-79
2022/01/04 06:28:58;;;;;;;32.17;13.10;;;8.20;99.90;;;;;;5069998;28;20098;-79
2022/01/04 06:31:42;;;;;;;36.58;13.68;;;8.20;99.90;;;;;;5070876;28;20040;-79
2022/01/04 06:34:26;;;;;;;38.95;12.55;;;8.20;99.90;;;;;;5071498;28;20048;-79
2022/01/04 06:37:13;;;;;;;30.42;12.68;;;8.20;99.90;;;;;;5071034;28;20071;-79
2022/01/04 06:39:57;;;;;;;30.90;12.15;;;8.20;99.90;;;;;;5069042;28;20071;-79
2022/01/04 06:42:41;;;;;;;27.33;12.00;;;8.20;99.90;;;;;;5070772;28;20414;-79
2022/01/04 06:45:25;;;;;;;;;;;8.20;99.90;;;;;;5071918;28;20047;-79
2022/01/04 06:48:10;;;;;;;31.27;10.73;;;8.10;99.90;;;;;;5053648;28;20372;-78
2022/01/04 06:50:54;;;;;;;23.35;9.75;;;8.20;99.90;;;;;;5068261;28;20036;-79
2022/01/04 06:53:38;;;;;;;;;;;8.10;99.90;;;;;;5071358;28;20090;-79
2022/01/04 06:56:23;;;;;;;19.65;8.55;;;8.10;99.90;;;;;;5052941;28;20423;-79
2022/01/04 06:59:08;;;;;;;29.30;9.00;;;8.10;99.90;;;;;;5069392;28;20452;-81
2022/01/04 07:01:52;;;;;;;20.67;9.52;;;8.10;99.90;;;;;;5069664;28;20118;-78
2022/01/04 07:04:36;;;;;;;;;;;8.30;99.90;;;;;;5056151;28;20400;-78
2022/01/04 07:07:20;;;;;;;20.50;7.97;;;8.00;99.90;;;;;;5071349;28;20651;-78
2022/01/04 07:10:07;;;;;;;24.23;9.93;;;8.00;99.90;;;;;;5071128;28;20035;-78
2022/01/04 07:12:52;;;;;;;20.50;9.40;;;8.00;99.90;;;;;;5070576;28;20039;-79
2022/01/04 07:15:36;;;;;;;22.13;9.40;;;8.00;99.90;;;;;;5071295;28;20161;-79
2022/01/04 07:18:21;;;;;;;22.25;9.45;;;8.00;99.90;;;;;;5071217;28;20043;-78
2022/01/04 07:21:05;;;;;;;19.63;10.05;;;8.00;99.90;;;;;;5071122;28;20032;-79
2022/01/04 07:23:51;;;;;;;21.90;9.95;;;7.90;99.90;;;;;;5070140;28;20079;-79
2022/01/04 07:26:35;;;;;;;21.02;10.57;;;7.90;99.90;;;;;;5071293;28;20073;-78
2022/01/04 07:29:19;;;;;;;;;;;7.90;99.90;;;;;;5072957;28;20396;-79
2022/01/04 07:32:03;;;;;;;22.02;10.68;;;7.90;99.90;;;;;;5059043;28;19923;-79
2022/01/04 07:34:48;;;;;;;24.95;11.25;;;7.80;99.90;;;;;;5059102;28;20047;-78
2022/01/04 07:37:32;;;;;;;30.05;12.20;;;8.00;99.90;;;;;;5074499;28;20078;-79
2022/01/04 07:40:17;;;;;;;19.00;11.60;;;7.90;99.90;;;;;;5059393;28;20035;-78
2022/01/04 07:43:02;;;;;;;31.83;14.18;;;7.90;99.90;;;;;;5073880;28;20090;-79
2022/01/04 07:45:46;;;;;;;29.30;13.60;;;7.90;99.90;;;;;;5073976;28;20086;-79
2022/01/04 07:48:30;;;;;;;;;;;7.90;99.90;;;;;;5074839;28;20047;-79
2022/01/04 07:51:14;;;;;;;27.25;12.75;;;8.00;99.90;;;;;;5059217;28;20311;-79
2022/01/04 07:53:59;;;;;;;30.45;14.20;;;7.90;99.90;;;;;;5058705;28;20123;-79
2022/01/04 07:56:44;;;;;;;24.55;11.73;;;7.90;99.90;;;;;;5058552;28;20543;-79
2022/01/04 07:59:30;;;;;;;25.60;12.07;;;7.90;99.90;;;;;;5059000;28;20078;-79
2022/01/04 08:02:14;;;;;;;21.33;11.85;;;7.90;99.90;;;;;;5072787;28;20094;-79
2022/01/04 08:04:58;;;;;;;25.05;11.82;;;7.90;99.90;;;;;;5072524;28;20197;-79
2022/01/04 08:07:42;;;;;;;;;;;8.00;99.90;;;;;;5058844;28;20055;-79
2022/01/04 08:10:26;;;;;;;24.27;12.40;;;7.90;99.90;;;;;;5074715;28;19915;-79
2022/01/04 08:13:10;;;;;;;26.33;12.88;;;7.90;99.90;;;;;;5073613;28;20098;-79
2022/01/04 08:15:54;;;;;;;23.27;12.13;;;7.90;99.90;;;;;;5074026;28;20051;-80
2022/01/04 08:18:38;;;;;;;;;;;8.00;99.90;;;;;;5073917;28;20404;-79
2022/01/04 08:21:22;;;;;;;17.38;9.20;;;8.00;99.90;;;;;;5074681;28;19958;-80
2022/01/04 08:24:07;;;;;;;7.07;3.78;;;8.00;99.90;;;;;;5058724;28;20522;-80
2022/01/04 08:26:51;;;;;;;13.73;3.22;;;7.80;99.90;;;;;;5073922;28;20158;-81
2022/01/04 08:29:35;;;;;;;7.50;2.55;;;7.70;99.90;;;;;;5074442;28;20089;-81
2022/01/04 08:32:20;;;;;;;8.27;2.72;;;7.70;99.90;;;;;;5059141;28;20058;-81
2022/01/04 08:35:04;;;;;;;;;;;7.80;99.90;;;;;;5058986;28;20039;-81
2022/01/04 08:37:49;;;;;;;6.28;2.40;;;7.40;99.90;;;;;;5058507;28;19935;-81
2022/01/04 08:40:33;;;;;;;12.80;2.33;;;7.30;99.90;;;;;;5073446;28;20062;-81
2022/01/04 08:43:19;;;;;;;7.35;2.45;;;7.30;99.90;;;;;;5058962;28;20047;-81
2022/01/04 08:46:03;;;;;;;7.13;2.58;;;7.20;99.90;;;;;;5044415;28;20553;-82
2022/01/04 08:48:47;;;;;;;7.03;2.53;;;7.40;99.90;;;;;;5058850;28;20044;-81
2022/01/04 08:51:31;;;;;;;10.43;2.90;;;7.70;99.90;;;;;;5058780;28;20116;-81
2022/01/04 08:54:16;;;;;;;;;;;7.20;99.90;;;;;;5059122;28;20047;-82
2022/01/04 08:57:02;;;;;;;6.78;2.60;;;7.20;99.90;;;;;;5055868;28;19947;-82
2022/01/04 08:59:47;;;;;;;8.30;3.22;;;7.10;99.90;;;;;;5058639;28;20040;-82
2022/01/04 09:02:33;;;;;;;9.02;3.85;;;7.20;99.90;;;;;;5073636;28;20044;-82
2022/01/04 09:05:17;;;;;;;10.13;3.75;;;7.20;99.90;;;;;;5073597;28;20040;-82
2022/01/04 09:08:01;;;;;;;;;;;7.20;99.90;;;;;;5058406;28;20047;-82
2022/01/04 09:10:45;;;;;;;7.07;3.15;;;7.20;99.90;;;;;;5073580;28;19919;-81
2022/01/04 09:13:40;;;;;;;6.50;2.67;;;7.20;99.90;;;;;;5073404;28;20487;-81
2022/01/04 09:19:28;;;;;;;11.57;3.47;;;7.30;99.90;;;;;;5070681;28;19961;-81
2022/01/04 09:22:12;;;;;;;11.82;3.40;;;7.30;99.90;;;;;;5071565;28;20051;-81
2022/01/04 09:24:56;;;;;;;9.13;3.40;;;7.30;99.90;;;;;;5070108;28;20055;-81
2022/01/04 09:27:40;;;;;;;10.65;3.20;;;7.40;99.90;;;;;;5070965;28;20094;-81
2022/01/04 09:30:25;;;;;;;8.75;3.15;;;7.30;99.90;;;;;;5071786;28;20123;-81
2022/01/04 09:33:09;;;;;;;11.23;2.92;;;7.40;99.90;;;;;;5071330;28;20044;-81
2022/01/04 09:35:53;;;;;;;19.90;4.75;;;7.30;99.90;;;;;;5071711;28;20050;-81
2022/01/04 09:38:38;;;;;;;12.27;3.15;;;7.40;99.90;;;;;;5070803;28;20089;-81
2022/01/04 09:41:22;;;;;;;;;;;7.40;99.90;;;;;;5072212;28;20043;-81
2022/01/04 09:44:06;;;;;;;;;;;7.40;99.90;;;;;;5071688;28;20275;-81
2022/01/04 09:46:51;;;;;;;9.30;2.08;;;7.40;99.90;;;;;;5071568;28;19962;-81
2022/01/04 09:49:35;;;;;;;7.80;1.70;;;7.70;99.90;;;;;;5071512;28;20079;-81
2022/01/04 09:52:21;;;;;;;2.97;1.15;;;7.30;99.90;;;;;;5055048;28;20109;-81
2022/01/04 09:55:06;;;;;;;6.68;1.60;;;7.40;99.90;;;;;;5071049;28;20137;-81
2022/01/04 09:57:53;;;;;;;8.57;1.65;;;7.30;99.90;;;;;;5071752;28;20527;-81
2022/01/04 10:00:37;;;;;;;4.68;1.60;;;7.20;99.90;;;;;;5071369;28;20043;-81
2022/01/04 10:03:28;;;;;;;8.77;1.40;;;7.30;99.90;;;;;;5071014;28;20089;-81
2022/01/04 10:06:15;;;;;;;5.95;1.70;;;7.30;99.90;;;;;;5066271;28;20039;-81
2022/01/04 10:09:08;;;;;;;5.88;1.65;;;7.20;99.90;;;;;;5071110;28;20102;-79
2022/01/04 10:11:58;;;;;;;3.72;1.08;;;7.30;99.90;;;;;;5055986;28;20039;-80
2022/01/04 10:14:49;;;;;;;4.30;1.23;;;7.20;99.90;;;;;;5071336;28;20044;-81
2022/01/04 10:17:35;;;;;;;5.15;1.02;;;7.20;99.90;;;;;;5056186;28;20535;-80
2022/01/04 10:20:20;;;;;;;3.45;0.90;;;7.10;99.90;;;;;;5055958;28;20047;-80
2022/01/04 10:23:12;;;;;;;4.72;1.33;;;7.10;99.90;;;;;;5055630;28;20070;-80
2022/01/04 10:26:07;;;;;;;10.02;1.30;;;7.00;99.90;;;;;;5055906;28;20551;-81
2022/01/04 10:28:51;;;;;;;7.65;1.88;;;7.00;99.90;;;;;;5071297;28;20116;-81
2022/01/04 10:31:38;;;;;;;4.32;1.48;;;6.90;99.90;;;;;;5071143;28;20047;-81
2022/01/04 10:34:23;;;;;;;5.25;1.40;;;6.90;99.90;;;;;;5055668;28;20044;-80
2022/01/04 10:37:27;;;;;;;5.63;1.30;;;6.90;99.90;;;;;;5070689;28;20044;-81
2022/01/04 10:40:12;;;;;;;9.93;1.40;;;6.80;99.90;;;;;;5070579;28;20047;-80
2022/01/04 10:43:10;;;;;;;5.00;1.65;;;6.80;99.90;;;;;;5055785;28;20101;-81
2022/01/04 10:45:56;;;;;;;5.97;1.48;;;6.80;99.90;;;;;;5070823;28;20416;-80
2022/01/04 10:48:44;;;;;;;8.88;1.77;;;6.70;99.90;;;;;;5055719;28;20039;-80
2022/01/04 10:51:30;;;;;;;9.50;2.30;;;6.80;99.90;;;;;;5070786;28;20495;-80
2022/01/04 10:54:19;;;;;;;2.88;0.90;;;6.60;99.90;;;;;;5070401;28;20166;-81
2022/01/04 10:57:08;;;;;;;3.55;0.98;;;6.60;99.90;;;;;;5054177;28;20048;-83
2022/01/04 10:59:52;;;;;;;1.75;0.80;;;6.50;99.90;;;;;;5067820;28;20031;-83
2022/01/04 11:02:36;;;;;;;4.18;0.95;;;6.50;99.90;;;;;;5052935;28;20090;-83
2022/01/04 11:05:21;;;;;;;4.82;1.10;;;6.30;99.90;;;;;;5071436;28;20120;-83
2022/01/04 11:08:13;;;;;;;10.73;1.23;;;6.30;99.90;;;;;;5071991;28;20116;-83
2022/01/04 11:10:57;;;;;;;6.43;1.20;;;6.30;99.90;;;;;;5073608;28;20051;-83
2022/01/04 11:13:42;;;;;;;2.35;0.90;;;6.10;99.90;;;;;;5054288;28;20129;-83
2022/01/04 11:16:28;;;;;;;3.83;1.10;;;6.10;99.90;;;;;;5038936;28;20107;-83
2022/01/04 11:19:12;;;;;;;5.47;1.67;;;6.10;99.90;;;;;;5054223;28;20493;-82
2022/01/04 11:21:59;;;;;;;;;;;6.20;99.90;;;;;;5054718;28;20099;-83
2022/01/04 11:24:46;;;;;;;9.98;1.08;;;6.20;99.90;;;;;;5054030;28;19916;-80
2022/01/04 11:27:34;;;;;;;4.07;0.98;;;6.20;99.90;;;;;;5053586;28;20404;-80
2022/01/04 11:30:32;;;;;;;7.65;1.23;;;6.10;99.90;;;;;;5053643;28;20047;-80
2022/01/04 11:33:29;;;;;;;4.93;0.90;;;6.20;99.90;;;;;;5038472;28;20043;-80
2022/01/04 11:36:15;;;;;;;3.30;0.90;;;6.20;99.90;;;;;;5053525;28;20123;-80
2022/01/04 11:38:59;;;;;;;5.10;1.45;;;6.20;99.90;;;;;;5054185;28;20060;-80
2022/01/04 11:41:43;;;;;;;3.75;1.20;;;6.70;99.90;;;;;;5053967;28;20040;-80
2022/01/04 11:44:28;;;;;;;;;;;6.10;99.90;;;;;;5038781;28;20120;-80
2022/01/04 11:47:23;;;;;;;5.45;1.25;;;6.10;99.90;;;;;;5053452;28;20054;-80
2022/01/04 11:50:16;;;;;;;4.80;0.95;;;6.10;99.90;;;;;;5053752;28;20036;-81
2022/01/04 11:53:06;;;;;;;3.22;0.98;;;6.00;99.90;;;;;;5038600;28;20503;-80
2022/01/04 11:55:56;;;;;;;7.93;1.55;;;6.00;99.90;;;;;;5053692;28;20409;-80
2022/01/04 11:58:52;;;;;;;10.30;1.23;;;5.90;99.90;;;;;;5038505;28;20040;-80
2022/01/04 12:01:37;;;;;;;5.55;1.42;;;6.10;99.90;;;;;;5053168;28;20051;-80
2022/01/04 12:04:39;;;;;;;;;;;5.70;99.90;;;;;;5038477;28;20036;-80
2022/01/04 12:07:42;;;;;;;9.13;1.50;;;5.60;99.90;;;;;;5052976;28;19958;-80
2022/01/04 12:10:26;;;;;;;8.52;1.52;;;5.50;99.90;;;;;;5052916;28;20088;-80
2022/01/04 12:13:14;;;;;;;3.25;0.85;;;6.00;99.90;;;;;;5038903;28;20044;-80
2022/01/04 12:16:06;;;;;;;9.57;1.40;;;5.70;99.90;;;;;;5072363;28;20488;-80
2022/01/04 12:18:54;;;;;;;6.53;1.27;;;5.50;99.90;;;;;;5073153;28;20451;-80
2022/01/04 12:21:48;;;;;;;6.38;1.20;;;5.50;99.90;;;;;;5072733;28;20059;-80
2022/01/04 12:24:51;;;;;;;5.13;1.20;;;5.50;99.90;;;;;;5072437;28;20101;-80
2022/01/04 12:27:35;;;;;;;7.60;0.98;;;6.20;99.90;;;;;;5072694;28;20043;-80
2022/01/04 12:30:25;;;;;;;5.20;1.05;;;5.60;99.90;;;;;;5057473;28;20081;-80
2022/01/04 12:33:35;;;;;;;5.40;1.40;;;5.70;99.90;;;;;;5072848;28;20076;-80
2022/01/04 12:36:30;;;;;;;6.68;1.35;;;5.70;99.90;;;;;;5072520;28;20044;-80
2022/01/04 12:39:18;;;;;;;3.63;0.90;;;5.70;99.90;;;;;;5057763;28;20043;-80
2022/01/04 12:42:03;;;;;;;5.75;1.10;;;5.80;99.90;;;;;;5057486;28;20044;-80
2022/01/04 12:44:53;;;;;;;4.65;0.88;;;5.80;99.90;;;;;;5072858;28;20573;-80
2022/01/04 12:47:38;;;;;;;4.60;0.80;;;5.80;99.90;;;;;;5072596;28;20091;-80
2022/01/04 12:50:24;;;;;;;6.43;1.00;;;5.80;99.90;;;;;;5057237;28;20043;-80
2022/01/04 12:53:08;;;;;;;5.45;1.70;;;5.80;99.90;;;;;;5072467;28;20400;-80
2022/01/04 12:56:03;;;;;;;4.57;1.20;;;5.90;99.90;;;;;;5043293;28;20043;-80
2022/01/04 12:58:47;;;;;;;;;;;5.80;99.90;;;;;;5072967;28;20067;-80
2022/01/04 13:01:32;;;;;;;7.88;1.77;;;5.80;99.90;;;;;;5072045;28;19919;-80
2022/01/04 13:04:33;;;;;;;6.07;1.10;;;5.80;99.90;;;;;;5043236;28;20055;-80
2022/01/04 13:07:20;;;;;;;6.97;1.73;;;5.80;99.90;;;;;;5072379;28;20082;-80
2022/01/04 13:10:15;;;;;;;5.07;1.17;;;6.00;99.90;;;;;;5072227;28;20082;-80
2022/01/04 13:13:00;;;;;;;6.72;1.23;;;5.90;99.90;;;;;;5056931;28;20142;-80
2022/01/04 13:15:44;;;;;;;11.07;1.63;;;5.70;99.90;;;;;;5056639;28;20139;-80
2022/01/04 13:18:28;;;;;;;7.10;1.17;;;5.70;99.90;;;;;;5042616;28;20495;-80
2022/01/04 13:21:12;;;;;;;17.13;1.58;;;5.60;99.90;;;;;;5072063;28;20048;-80
2022/01/04 13:23:56;;;;;;;;;;;5.60;99.90;;;;;;5072448;28;20043;-80
2022/01/04 13:26:41;;;;;;;9.35;1.23;;;5.70;99.90;;;;;;5070426;28;19970;-80
2022/01/04 13:29:24;;;;;;;;;;;5.60;99.90;;;;;;5072212;28;20036;-79
2022/01/04 13:32:09;;;;;;;7.47;1.40;;;5.60;99.90;;;;;;5070700;28;19919;-80
2022/01/04 13:35:26;;;;;;;11.40;1.83;;;5.60;99.90;;;;;;5070700;28;20098;-80
2022/01/04 13:38:32;;;;;;;9.43;1.75;;;5.70;99.90;;;;;;5070611;28;20039;-81
2022/01/04 13:41:37;;;;;;;8.40;2.40;;;5.70;99.90;;;;;;5070164;28;20086;-80
2022/01/04 13:44:21;;;;;;;7.90;1.60;;;5.90;99.90;;;;;;5071157;28;20504;-81
2022/01/04 13:47:13;;;;;;;6.63;1.40;;;5.90;99.90;;;;;;5072600;28;20161;-82
2022/01/04 13:50:20;;;;;;;5.75;1.42;;;5.70;99.90;;;;;;5057703;28;20083;-81
2022/01/04 13:53:24;;;;;;;8.60;1.58;;;5.70;99.90;;;;;;5072796;28;20093;-81
2022/01/04 13:56:16;;;;;;;6.72;1.83;;;5.70;99.90;;;;;;5057647;28;20388;-81
2022/01/04 13:59:01;;;;;;;9.65;1.33;;;5.80;99.90;;;;;;5072766;28;20071;-81
2022/01/04 14:01:46;;;;;;;;;;;5.80;99.90;;;;;;5057585;28;20043;-81
2022/01/04 14:04:30;;;;;;;10.05;1.33;;;5.70;99.90;;;;;;5072358;28;19962;-81
2022/01/04 14:07:14;;;;;;;;;;;5.70;99.90;;;;;;5057991;28;20043;-81
2022/01/04 14:09:58;;;;;;;3.63;0.98;;;6.20;99.90;;;;;;5071773;28;20003;-81
2022/01/04 14:12:43;;;;;;;;;;;5.70;99.90;;;;;;5072531;28;20458;-81
2022/01/04 14:15:28;;;;;;;8.27;1.63;;;5.70;99.90;;;;;;5072670;28;20046;-81
2022/01/04 14:18:12;;;;;;;;;;;5.70;99.90;;;;;;5072950;28;20500;-81
2022/01/04 14:20:56;;;;;;;4.43;1.13;;;5.60;99.90;;;;;;5072069;28;19924;-81
2022/01/04 14:23:40;;;;;;;;;;;6.10;99.90;;;;;;5072456;28;20113;-81
2022/01/04 14:26:25;;;;;;;7.53;1.27;;;5.60;99.90;;;;;;5072278;28;19924;-82
2022/01/04 14:29:10;;;;;;;6.18;1.30;;;5.60;99.90;;;;;;5072395;28;20094;-81
2022/01/04 14:32:01;;;;;;;8.23;1.70;;;5.60;99.90;;;;;;5056915;28;20511;-81
2022/01/04 14:34:46;;;;;;;8.82;1.40;;;5.60;99.90;;;;;;5071969;28;20600;-81
2022/01/04 14:37:31;;;;;;;7.82;1.60;;;5.60;99.90;;;;;;5057452;28;20165;-81
2022/01/04 14:40:15;;;;;;;;;;;5.60;99.90;;;;;;5076819;28;20130;-81
2022/01/04 14:43:00;;;;;;;8.80;1.70;;;5.50;99.90;;;;;;5076314;28;20418;-81
2022/01/04 14:45:44;;;;;;;8.27;1.60;;;5.50;99.90;;;;;;5060716;28;20090;-81
2022/01/04 14:48:28;;;;;;;;;;;6.10;99.90;;;;;;5061694;28;20046;-81
2022/01/04 14:51:12;;;;;;;5.88;1.55;;;5.40;99.90;;;;;;5075271;28;19919;-81
2022/01/04 14:53:57;;;;;;;5.90;1.40;;;5.30;99.90;;;;;;5060604;28;20055;-81